sensor_id;sensor_type;location;lat;lon;timestamp;pressure;altitude;pressure_sealevel;temperature;humidity
46955;BME280;32708;51.212;6.788;2023-12-20T00:01:06;100978.47;;;9.50;100.00
46955;BME280;32708;51.212;6.788;2023-12-20T00:03:32;100979.09;;;9.83;100.00
46955;BME280;32708;51.212;6.788;2023-12-20T00:05:59;100968.78;;;9.93;100.00
46955;BME280;32708;51.212;6.788;2023-12-20T00:08:25;100970.03;;;9.74;100.00
46955;BME280;32708;51.212;6.788;2023-12-20T00:10:51;100976.69;;;9.81;100.00
46955;BME280;32708;51.212;6.788;2023-12-20T00:13:18;100968.44;;;9.73;100.00
46955;BME280;32708;51.212;6.788;2023-12-20T00:15:45;100980.31;;;9.77;100.00
46955;BME280;32708;51.212;6.788;2023-12-20T00:18:12;100973.13;;;9.58;100.00
46955;BME280;32708;51.212;6.788;2023-12-20T00:20:38;100970.19;;;9.55;100.00
46955;BME280;32708;51.212;6.788;2023-12-20T00:23:04;100972.97;;;9.63;100.00
46955;BME280;32708;51.212;6.788;2023-12-20T00:25:31;100980.50;;;9.58;100.00
46955;BME280;32708;51.212;6.788;2023-12-20T00:27:57;100987.97;;;9.38;100.00
46955;BME280;32708;51.212;6.788;2023-12-20T00:30:24;101005.50;;;9.60;100.00
46955;BME280;32708;51.212;6.788;2023-12-20T00:32:50;101006.56;;;9.50;100.00
46955;BME280;32708;51.212;6.788;2023-12-20T00:35:16;101008.34;;;9.55;100.00
46955;BME280;32708;51.212;6.788;2023-12-20T00:37:43;101001.34;;;9.62;100.00
46955;BME280;32708;51.212;6.788;2023-12-20T00:40:10;101012.41;;;9.44;100.00
46955;BME280;32708;51.212;6.788;2023-12-20T00:42:37;101005.31;;;9.56;100.00
46955;BME280;32708;51.212;6.788;2023-12-20T00:45:04;101006.66;;;9.18;100.00
46955;BME280;32708;51.212;6.788;2023-12-20T00:47:31;101006.66;;;9.18;100.00
46955;BME280;32708;51.212;6.788;2023-12-20T00:49:58;101000.59;;;9.21;100.00
46955;BME280;32708;51.212;6.788;2023-12-20T00:52:24;101020.28;;;9.45;100.00
46955;BME280;32708;51.212;6.788;2023-12-20T00:54:51;101018.53;;;9.35;100.00
46955;BME280;32708;51.212;6.788;2023-12-20T00:57:18;101017.56;;;9.45;100.00
46955;BME280;32708;51.212;6.788;2023-12-20T00:59:44;101005.75;;;9.36;100.00
46955;BME280;32708;51.212;6.788;2023-12-20T01:02:10;101014.81;;;9.04;100.00
46955;BME280;32708;51.212;6.788;2023-12-20T01:04:36;101021.00;;;9.09;100.00
46955;BME280;32708;51.212;6.788;2023-12-20T01:07:03;101026.13;;;9.38;100.00
46955;BME280;32708;51.212;6.788;2023-12-20T01:09:29;101016.13;;;9.06;100.00
46955;BME280;32708;51.212;6.788;2023-12-20T01:11:55;101026.72;;;9.35;100.00
46955;BME280;32708;51.212;6.788;2023-12-20T01:14:21;101028.94;;;9.20;100.00
46955;BME280;32708;51.212;6.788;2023-12-20T01:16:48;101035.09;;;8.98;100.00
46955;BME280;32708;51.212;6.788;2023-12-20T01:19:14;101037.44;;;9.18;100.00
46955;BME280;32708;51.212;6.788;2023-12-20T01:21:41;101028.75;;;9.44;100.00
46955;BME280;32708;51.212;6.788;2023-12-20T01:24:07;101027.44;;;9.14;100.00
46955;BME280;32708;51.212;6.788;2023-12-20T01:26:33;101031.88;;;9.09;100.00
46955;BME280;32708;51.212;6.788;2023-12-20T01:29:00;101035.47;;;8.91;100.00
46955;BME280;32708;51.212;6.788;2023-12-20T01:31:27;101037.63;;;8.94;100.00
46955;BME280;32708;51.212;6.788;2023-12-20T01:33:53;101048.72;;;9.12;100.00
46955;BME280;32708;51.212;6.788;2023-12-20T01:36:21;101024.22;;;9.39;100.00
46955;BME280;32708;51.212;6.788;2023-12-20T01:38:47;101026.84;;;9.17;100.00
46955;BME280;32708;51.212;6.788;2023-12-20T01:41:13;101027.56;;;9.08;100.00
46955;BME280;32708;51.212;6.788;2023-12-20T01:43:39;101039.38;;;8.71;100.00
46955;BME280;32708;51.212;6.788;2023-12-20T01:46:06;101037.47;;;8.39;100.00
46955;BME280;32708;51.212;6.788;2023-12-20T01:48:33;101039.09;;;8.73;100.00
46955;BME280;32708;51.212;6.788;2023-12-20T01:51:01;101034.19;;;8.89;100.00
46955;BME280;32708;51.212;6.788;2023-12-20T01:53:29;101042.81;;;8.77;100.00
46955;BME280;32708;51.212;6.788;2023-12-20T01:55:59;101040.00;;;8.82;100.00
46955;BME280;32708;51.212;6.788;2023-12-20T01:58:26;101037.38;;;8.77;100.00
46955;BME280;32708;51.212;6.788;2023-12-20T02:00:55;101030.66;;;8.55;100.00
46955;BME280;32708;51.212;6.788;2023-12-20T02:03:22;101032.47;;;8.79;100.00
46955;BME280;32708;51.212;6.788;2023-12-20T02:05:48;101026.97;;;8.65;100.00
46955;BME280;32708;51.212;6.788;2023-12-20T02:08:14;101028.06;;;8.50;100.00
46955;BME280;32708;51.212;6.788;2023-12-20T02:10:41;101035.53;;;8.59;100.00
46955;BME280;32708;51.212;6.788;2023-12-20T02:13:08;101026.38;;;8.68;100.00
46955;BME280;32708;51.212;6.788;2023-12-20T02:15:34;101025.66;;;8.63;100.00
46955;BME280;32708;51.212;6.788;2023-12-20T02:18:04;101040.25;;;8.53;100.00
46955;BME280;32708;51.212;6.788;2023-12-20T02:20:30;101037.13;;;8.60;100.00
46955;BME280;32708;51.212;6.788;2023-12-20T02:22:57;101026.88;;;8.70;100.00
46955;BME280;32708;51.212;6.788;2023-12-20T02:25:23;101034.38;;;8.46;100.00
46955;BME280;32708;51.212;6.788;2023-12-20T02:27:50;101032.66;;;8.50;100.00
46955;BME280;32708;51.212;6.788;2023-12-20T02:30:16;101050.47;;;8.42;100.00
46955;BME280;32708;51.212;6.788;2023-12-20T02:32:43;101053.34;;;8.13;100.00
46955;BME280;32708;51.212;6.788;2023-12-20T02:35:09;101064.38;;;8.22;100.00
46955;BME280;32708;51.212;6.788;2023-12-20T02:37:37;101064.91;;;8.24;100.00
46955;BME280;32708;51.212;6.788;2023-12-20T02:40:05;101060.19;;;8.48;100.00
46955;BME280;32708;51.212;6.788;2023-12-20T02:42:32;101060.38;;;8.33;100.00
46955;BME280;32708;51.212;6.788;2023-12-20T02:44:58;101065.19;;;8.41;100.00
46955;BME280;32708;51.212;6.788;2023-12-20T02:47:24;101065.69;;;8.24;100.00
46955;BME280;32708;51.212;6.788;2023-12-20T02:49:51;101068.50;;;8.00;100.00
46955;BME280;32708;51.212;6.788;2023-12-20T02:52:19;101066.41;;;7.92;100.00
46955;BME280;32708;51.212;6.788;2023-12-20T02:54:45;101068.47;;;8.19;100.00
46955;BME280;32708;51.212;6.788;2023-12-20T02:57:11;101059.81;;;7.98;100.00
46955;BME280;32708;51.212;6.788;2023-12-20T02:59:38;101067.00;;;7.89;100.00
46955;BME280;32708;51.212;6.788;2023-12-20T03:02:04;101054.16;;;8.14;100.00
46955;BME280;32708;51.212;6.788;2023-12-20T03:04:30;101068.09;;;8.07;100.00
46955;BME280;32708;51.212;6.788;2023-12-20T03:06:56;101061.88;;;8.07;100.00
46955;BME280;32708;51.212;6.788;2023-12-20T03:09:22;101056.00;;;8.18;100.00
46955;BME280;32708;51.212;6.788;2023-12-20T03:11:48;101057.09;;;8.17;100.00
46955;BME280;32708;51.212;6.788;2023-12-20T03:14:15;101072.53;;;8.03;100.00
46955;BME280;32708;51.212;6.788;2023-12-20T03:16:41;101061.13;;;7.82;100.00
46955;BME280;32708;51.212;6.788;2023-12-20T03:19:07;101070.38;;;8.00;100.00
46955;BME280;32708;51.212;6.788;2023-12-20T03:21:33;101066.50;;;8.06;100.00
46955;BME280;32708;51.212;6.788;2023-12-20T03:23:59;101051.53;;;8.09;100.00
46955;BME280;32708;51.212;6.788;2023-12-20T03:26:26;101052.31;;;8.28;100.00
46955;BME280;32708;51.212;6.788;2023-12-20T03:28:52;101051.66;;;8.17;100.00
46955;BME280;32708;51.212;6.788;2023-12-20T03:31:18;101062.53;;;7.98;100.00
46955;BME280;32708;51.212;6.788;2023-12-20T03:33:45;101065.25;;;7.98;100.00
46955;BME280;32708;51.212;6.788;2023-12-20T03:36:11;101062.16;;;8.05;100.00
46955;BME280;32708;51.212;6.788;2023-12-20T03:38:37;101048.41;;;7.78;100.00
46955;BME280;32708;51.212;6.788;2023-12-20T03:41:04;101062.63;;;7.93;100.00
46955;BME280;32708;51.212;6.788;2023-12-20T03:43:30;101048.19;;;7.93;100.00
46955;BME280;32708;51.212;6.788;2023-12-20T03:45:57;101051.31;;;7.86;100.00
46955;BME280;32708;51.212;6.788;2023-12-20T03:48:24;101048.97;;;7.56;100.00
46955;BME280;32708;51.212;6.788;2023-12-20T03:50:50;101054.66;;;7.78;100.00
46955;BME280;32708;51.212;6.788;2023-12-20T03:53:17;101050.19;;;7.87;100.00
46955;BME280;32708;51.212;6.788;2023-12-20T03:55:43;101042.16;;;7.77;100.00
46955;BME280;32708;51.212;6.788;2023-12-20T03:58:10;101040.91;;;7.69;100.00
46955;BME280;32708;51.212;6.788;2023-12-20T04:00:36;101054.00;;;7.67;100.00
46955;BME280;32708;51.212;6.788;2023-12-20T04:03:02;101058.72;;;7.57;100.00
46955;BME280;32708;51.212;6.788;2023-12-20T04:05:28;101056.47;;;7.64;100.00
46955;BME280;32708;51.212;6.788;2023-12-20T04:07:55;101046.59;;;7.73;100.00
46955;BME280;32708;51.212;6.788;2023-12-20T04:10:21;101058.66;;;7.62;100.00
46955;BME280;32708;51.212;6.788;2023-12-20T04:12:47;101046.94;;;7.66;100.00
46955;BME280;32708;51.212;6.788;2023-12-20T04:15:13;101038.19;;;7.69;100.00
46955;BME280;32708;51.212;6.788;2023-12-20T04:17:39;101034.25;;;7.81;100.00
46955;BME280;32708;51.212;6.788;2023-12-20T04:20:06;101037.44;;;7.64;100.00
46955;BME280;32708;51.212;6.788;2023-12-20T04:22:33;101036.78;;;7.53;100.00
46955;BME280;32708;51.212;6.788;2023-12-20T04:24:59;101045.69;;;7.59;100.00
46955;BME280;32708;51.212;6.788;2023-12-20T04:27:25;101051.13;;;7.59;100.00
46955;BME280;32708;51.212;6.788;2023-12-20T04:29:51;101047.81;;;7.62;100.00
46955;BME280;32708;51.212;6.788;2023-12-20T04:32:17;101045.44;;;7.55;100.00
46955;BME280;32708;51.212;6.788;2023-12-20T04:34:43;101059.13;;;7.50;100.00
46955;BME280;32708;51.212;6.788;2023-12-20T04:37:10;101063.94;;;7.53;100.00
46955;BME280;32708;51.212;6.788;2023-12-20T04:39:36;101054.13;;;7.57;100.00
46955;BME280;32708;51.212;6.788;2023-12-20T04:42:03;101052.84;;;7.50;100.00
46955;BME280;32708;51.212;6.788;2023-12-20T04:44:29;101049.09;;;7.45;100.00
46955;BME280;32708;51.212;6.788;2023-12-20T04:46:55;101047.41;;;7.50;100.00
46955;BME280;32708;51.212;6.788;2023-12-20T04:49:22;101054.13;;;7.76;100.00
46955;BME280;32708;51.212;6.788;2023-12-20T04:51:48;101054.50;;;7.69;100.00
46955;BME280;32708;51.212;6.788;2023-12-20T04:54:15;101050.31;;;7.34;100.00
46955;BME280;32708;51.212;6.788;2023-12-20T04:56:42;101056.00;;;7.57;100.00
46955;BME280;32708;51.212;6.788;2023-12-20T04:59:08;101062.22;;;7.14;100.00
46955;BME280;32708;51.212;6.788;2023-12-20T05:01:34;101073.31;;;7.66;100.00
46955;BME280;32708;51.212;6.788;2023-12-20T05:04:00;101065.50;;;7.35;100.00
46955;BME280;32708;51.212;6.788;2023-12-20T05:06:26;101056.19;;;7.41;100.00
46955;BME280;32708;51.212;6.788;2023-12-20T05:08:52;101061.16;;;7.34;100.00
46955;BME280;32708;51.212;6.788;2023-12-20T05:11:19;101061.81;;;7.26;100.00
46955;BME280;32708;51.212;6.788;2023-12-20T05:13:45;101065.91;;;7.48;100.00
46955;BME280;32708;51.212;6.788;2023-12-20T05:16:11;101064.34;;;7.65;100.00
46955;BME280;32708;51.212;6.788;2023-12-20T05:18:40;101052.22;;;7.58;100.00
46955;BME280;32708;51.212;6.788;2023-12-20T05:21:09;101061.06;;;7.44;100.00
46955;BME280;32708;51.212;6.788;2023-12-20T05:23:35;101061.75;;;7.31;100.00
46955;BME280;32708;51.212;6.788;2023-12-20T05:26:01;101052.84;;;7.50;100.00
46955;BME280;32708;51.212;6.788;2023-12-20T05:28:28;101062.78;;;7.59;100.00
46955;BME280;32708;51.212;6.788;2023-12-20T05:31:02;101063.59;;;7.60;100.00
46955;BME280;32708;51.212;6.788;2023-12-20T05:33:29;101059.47;;;7.62;100.00
46955;BME280;32708;51.212;6.788;2023-12-20T05:35:55;101046.53;;;7.54;100.00
46955;BME280;32708;51.212;6.788;2023-12-20T05:38:21;101050.84;;;7.36;100.00
46955;BME280;32708;51.212;6.788;2023-12-20T05:40:48;101049.09;;;7.45;100.00
46955;BME280;32708;51.212;6.788;2023-12-20T05:43:14;101035.72;;;7.49;100.00
46955;BME280;32708;51.212;6.788;2023-12-20T05:45:41;101043.63;;;7.51;100.00
46955;BME280;32708;51.212;6.788;2023-12-20T05:48:08;101037.06;;;7.52;100.00
46955;BME280;32708;51.212;6.788;2023-12-20T05:50:37;101040.41;;;7.67;100.00
46955;BME280;32708;51.212;6.788;2023-12-20T05:53:03;101041.09;;;7.54;100.00
46955;BME280;32708;51.212;6.788;2023-12-20T05:55:30;101026.31;;;7.65;100.00
46955;BME280;32708;51.212;6.788;2023-12-20T05:57:56;101033.28;;;7.71;100.00
46955;BME280;32708;51.212;6.788;2023-12-20T06:00:22;101032.34;;;7.81;100.00
46955;BME280;32708;51.212;6.788;2023-12-20T06:02:48;101035.19;;;7.90;100.00
46955;BME280;32708;51.212;6.788;2023-12-20T06:05:15;101030.50;;;7.95;100.00
46955;BME280;32708;51.212;6.788;2023-12-20T06:07:53;101039.97;;;7.79;100.00
46955;BME280;32708;51.212;6.788;2023-12-20T06:10:23;101038.97;;;7.94;100.00
46955;BME280;32708;51.212;6.788;2023-12-20T06:12:49;101045.91;;;8.00;100.00
46955;BME280;32708;51.212;6.788;2023-12-20T06:15:17;101045.53;;;7.69;100.00
46955;BME280;32708;51.212;6.788;2023-12-20T06:17:43;101048.59;;;7.86;100.00
46955;BME280;32708;51.212;6.788;2023-12-20T06:20:10;101053.63;;;7.74;100.00
46955;BME280;32708;51.212;6.788;2023-12-20T06:22:36;101064.63;;;7.64;100.00
46955;BME280;32708;51.212;6.788;2023-12-20T06:25:03;101066.34;;;7.79;100.00
46955;BME280;32708;51.212;6.788;2023-12-20T06:27:29;101063.53;;;7.65;100.00
46955;BME280;32708;51.212;6.788;2023-12-20T06:29:56;101064.41;;;7.60;100.00
46955;BME280;32708;51.212;6.788;2023-12-20T06:32:22;101063.59;;;7.60;100.00
46955;BME280;32708;51.212;6.788;2023-12-20T06:34:49;101050.84;;;7.79;100.00
46955;BME280;32708;51.212;6.788;2023-12-20T06:37:15;101059.28;;;7.78;100.00
46955;BME280;32708;51.212;6.788;2023-12-20T06:39:42;101062.91;;;7.73;100.00
46955;BME280;32708;51.212;6.788;2023-12-20T06:42:08;101069.50;;;7.67;100.00
46955;BME280;32708;51.212;6.788;2023-12-20T06:44:34;101066.16;;;7.94;100.00
46955;BME280;32708;51.212;6.788;2023-12-20T06:47:00;101048.44;;;7.96;100.00
46955;BME280;32708;51.212;6.788;2023-12-20T06:49:27;101049.00;;;7.75;100.00
46955;BME280;32708;51.212;6.788;2023-12-20T06:51:53;101052.00;;;7.92;100.00
46955;BME280;32708;51.212;6.788;2023-12-20T06:54:19;101054.38;;;7.80;100.00
46955;BME280;32708;51.212;6.788;2023-12-20T06:56:46;101062.94;;;7.68;100.00
46955;BME280;32708;51.212;6.788;2023-12-20T06:59:12;101056.34;;;7.93;100.00
46955;BME280;32708;51.212;6.788;2023-12-20T07:01:38;101049.16;;;8.02;100.00
46955;BME280;32708;51.212;6.788;2023-12-20T07:04:04;101049.03;;;7.93;100.00
46955;BME280;32708;51.212;6.788;2023-12-20T07:06:30;101044.97;;;7.72;100.00
46955;BME280;32708;51.212;6.788;2023-12-20T07:08:56;101044.00;;;7.82;100.00
46955;BME280;32708;51.212;6.788;2023-12-20T07:11:23;101048.34;;;7.83;100.00
46955;BME280;32708;51.212;6.788;2023-12-20T07:13:49;101033.41;;;7.61;100.00
46955;BME280;32708;51.212;6.788;2023-12-20T07:16:15;101049.69;;;8.04;100.00
46955;BME280;32708;51.212;6.788;2023-12-20T07:18:41;101045.56;;;7.88;100.00
46955;BME280;32708;51.212;6.788;2023-12-20T07:21:07;101040.28;;;7.96;100.00
46955;BME280;32708;51.212;6.788;2023-12-20T07:23:34;101031.28;;;7.77;100.00
46955;BME280;32708;51.212;6.788;2023-12-20T07:26:00;101035.28;;;8.04;100.00
46955;BME280;32708;51.212;6.788;2023-12-20T07:28:28;101043.13;;;8.05;100.00
46955;BME280;32708;51.212;6.788;2023-12-20T07:30:54;101039.91;;;8.03;100.00
46955;BME280;32708;51.212;6.788;2023-12-20T07:33:20;101040.94;;;7.88;100.00
46955;BME280;32708;51.212;6.788;2023-12-20T07:35:47;101039.84;;;8.08;100.00
46955;BME280;32708;51.212;6.788;2023-12-20T07:38:13;101039.66;;;8.18;100.00
46955;BME280;32708;51.212;6.788;2023-12-20T07:40:39;101034.78;;;8.02;100.00
46955;BME280;32708;51.212;6.788;2023-12-20T07:43:05;101040.72;;;8.22;100.00
46955;BME280;32708;51.212;6.788;2023-12-20T07:45:31;101039.81;;;8.27;100.00
46955;BME280;32708;51.212;6.788;2023-12-20T07:47:57;101034.91;;;7.91;100.00
46955;BME280;32708;51.212;6.788;2023-12-20T07:50:23;101044.16;;;7.90;100.00
46955;BME280;32708;51.212;6.788;2023-12-20T07:52:49;101036.06;;;8.23;100.00
46955;BME280;32708;51.212;6.788;2023-12-20T07:55:15;101037.03;;;8.13;100.00
46955;BME280;32708;51.212;6.788;2023-12-20T07:57:42;101035.03;;;8.19;100.00
46955;BME280;32708;51.212;6.788;2023-12-20T08:00:09;101034.38;;;8.27;100.00
46955;BME280;32708;51.212;6.788;2023-12-20T08:02:35;101037.09;;;7.89;100.00
46955;BME280;32708;51.212;6.788;2023-12-20T08:05:01;101047.03;;;7.80;100.00
46955;BME280;32708;51.212;6.788;2023-12-20T08:07:27;101037.38;;;8.07;100.00
46955;BME280;32708;51.212;6.788;2023-12-20T08:09:53;101045.34;;;8.03;100.00
46955;BME280;32708;51.212;6.788;2023-12-20T08:12:22;101027.75;;;8.14;100.00
46955;BME280;32708;51.212;6.788;2023-12-20T08:14:48;101038.22;;;7.88;100.00
46955;BME280;32708;51.212;6.788;2023-12-20T08:17:14;101046.97;;;8.04;100.00
46955;BME280;32708;51.212;6.788;2023-12-20T08:19:45;101044.91;;;8.15;100.00
46955;BME280;32708;51.212;6.788;2023-12-20T08:22:15;101040.09;;;8.07;100.00
46955;BME280;32708;51.212;6.788;2023-12-20T08:24:42;101041.88;;;7.97;100.00
46955;BME280;32708;51.212;6.788;2023-12-20T08:27:08;101043.66;;;7.88;100.00
46955;BME280;32708;51.212;6.788;2023-12-20T08:29:35;101027.06;;;8.09;100.00
46955;BME280;32708;51.212;6.788;2023-12-20T08:32:02;101030.63;;;8.04;100.00
46955;BME280;32708;51.212;6.788;2023-12-20T08:34:28;101033.34;;;8.04;100.00
46955;BME280;32708;51.212;6.788;2023-12-20T08:36:54;101024.03;;;8.10;100.00
46955;BME280;32708;51.212;6.788;2023-12-20T08:39:21;101036.16;;;7.99;100.00
46955;BME280;32708;51.212;6.788;2023-12-20T08:41:47;101036.44;;;7.97;100.00
46955;BME280;32708;51.212;6.788;2023-12-20T08:44:13;101041.44;;;8.09;100.00
46955;BME280;32708;51.212;6.788;2023-12-20T08:46:39;101047.19;;;7.89;100.00
46955;BME280;32708;51.212;6.788;2023-12-20T08:49:05;101049.03;;;7.93;100.00
46955;BME280;32708;51.212;6.788;2023-12-20T08:51:32;101051.16;;;7.96;100.00
46955;BME280;32708;51.212;6.788;2023-12-20T08:53:59;101046.66;;;8.06;100.00
46955;BME280;32708;51.212;6.788;2023-12-20T08:56:49;101055.53;;;7.92;100.00
46955;BME280;32708;51.212;6.788;2023-12-20T08:59:16;101052.81;;;7.92;100.00
46955;BME280;32708;51.212;6.788;2023-12-20T09:01:44;101045.97;;;8.14;100.00
46955;BME280;32708;51.212;6.788;2023-12-20T09:04:10;101047.31;;;7.97;100.00
46955;BME280;32708;51.212;6.788;2023-12-20T09:06:37;101055.03;;;8.09;100.00
46955;BME280;32708;51.212;6.788;2023-12-20T09:09:03;101048.44;;;7.96;100.00
46955;BME280;32708;51.212;6.788;2023-12-20T09:11:29;101041.34;;;7.77;100.00
46955;BME280;32708;51.212;6.788;2023-12-20T09:13:55;101047.91;;;7.94;100.00
46955;BME280;32708;51.212;6.788;2023-12-20T09:16:22;101035.53;;;8.21;100.00
46955;BME280;32708;51.212;6.788;2023-12-20T09:18:48;101033.22;;;7.95;100.00
46955;BME280;32708;51.212;6.788;2023-12-20T09:21:14;101025.03;;;7.77;100.00
46955;BME280;32708;51.212;6.788;2023-12-20T09:23:40;101037.16;;;7.84;100.00
46955;BME280;32708;51.212;6.788;2023-12-20T09:26:07;101032.84;;;8.02;100.00
46955;BME280;32708;51.212;6.788;2023-12-20T09:28:33;101031.06;;;7.92;100.00
46955;BME280;32708;51.212;6.788;2023-12-20T09:31:04;101038.66;;;7.95;100.00
46955;BME280;32708;51.212;6.788;2023-12-20T09:33:31;101036.50;;;8.11;100.00
46955;BME280;32708;51.212;6.788;2023-12-20T09:35:57;101034.59;;;7.93;100.00
46955;BME280;32708;51.212;6.788;2023-12-20T09:38:24;101024.81;;;8.30;100.00
46955;BME280;32708;51.212;6.788;2023-12-20T09:40:50;101026.91;;;8.38;100.00
46955;BME280;32708;51.212;6.788;2023-12-20T09:43:20;101024.66;;;8.21;100.00
46955;BME280;32708;51.212;6.788;2023-12-20T09:45:53;101031.25;;;8.01;100.00
46955;BME280;32708;51.212;6.788;2023-12-20T09:48:20;101031.44;;;8.05;100.00
46955;BME280;32708;51.212;6.788;2023-12-20T09:50:47;101028.50;;;8.20;100.00
46955;BME280;32708;51.212;6.788;2023-12-20T09:53:19;101031.13;;;8.25;100.00
46955;BME280;32708;51.212;6.788;2023-12-20T09:55:46;101032.38;;;8.33;100.00
46955;BME280;32708;51.212;6.788;2023-12-20T09:58:12;101029.84;;;8.22;100.00
46955;BME280;32708;51.212;6.788;2023-12-20T10:00:38;101024.47;;;8.17;100.00
46955;BME280;32708;51.212;6.788;2023-12-20T10:03:06;101028.88;;;8.13;100.00
46955;BME280;32708;51.212;6.788;2023-12-20T10:05:34;101019.03;;;8.17;100.00
46955;BME280;32708;51.212;6.788;2023-12-20T10:08:01;101032.91;;;8.16;100.00
46955;BME280;32708;51.212;6.788;2023-12-20T10:10:29;101030.03;;;8.26;100.00
46955;BME280;32708;51.212;6.788;2023-12-20T10:13:10;101028.81;;;8.37;100.00
46955;BME280;32708;51.212;6.788;2023-12-20T10:15:38;101033.19;;;8.14;100.00
46955;BME280;32708;51.212;6.788;2023-12-20T10:18:05;101023.28;;;8.23;100.00
46955;BME280;32708;51.212;6.788;2023-12-20T10:20:31;101031.38;;;8.10;100.00
46955;BME280;32708;51.212;6.788;2023-12-20T10:22:59;101019.47;;;8.43;100.00
46955;BME280;32708;51.212;6.788;2023-12-20T10:25:26;101016.16;;;8.60;100.00
46955;BME280;32708;51.212;6.788;2023-12-20T10:28:16;101008.34;;;8.40;100.00
46955;BME280;32708;51.212;6.788;2023-12-20T10:30:47;101009.13;;;8.08;100.00
46955;BME280;32708;51.212;6.788;2023-12-20T10:33:13;101012.84;;;8.12;100.00
46955;BME280;32708;51.212;6.788;2023-12-20T10:35:40;101009.38;;;8.25;100.00
46955;BME280;32708;51.212;6.788;2023-12-20T10:38:07;100995.56;;;8.40;100.00
46955;BME280;32708;51.212;6.788;2023-12-20T10:40:35;100995.56;;;8.40;100.00
46955;BME280;32708;51.212;6.788;2023-12-20T10:43:05;100996.16;;;8.18;100.00
46955;BME280;32708;51.212;6.788;2023-12-20T10:45:32;101001.72;;;8.27;100.00
46955;BME280;32708;51.212;6.788;2023-12-20T10:47:58;100990.09;;;8.40;100.00
46955;BME280;32708;51.212;6.788;2023-12-20T10:50:27;100982.97;;;8.44;100.00
46955;BME280;32708;51.212;6.788;2023-12-20T10:52:58;100989.66;;;8.33;100.00
46955;BME280;32708;51.212;6.788;2023-12-20T10:55:25;100984.47;;;8.18;100.00
46955;BME280;32708;51.212;6.788;2023-12-20T10:57:54;100978.66;;;8.43;100.00
46955;BME280;32708;51.212;6.788;2023-12-20T11:00:26;100975.31;;;8.46;100.00
46955;BME280;32708;51.212;6.788;2023-12-20T11:03:02;100987.13;;;8.55;100.00
46955;BME280;32708;51.212;6.788;2023-12-20T11:06:09;100980.47;;;8.62;100.00
46955;BME280;32708;51.212;6.788;2023-12-20T11:09:11;100981.41;;;8.71;100.00
46955;BME280;32708;51.212;6.788;2023-12-20T11:14:50;100984.22;;;8.33;100.00
46955;BME280;32708;51.212;6.788;2023-12-20T11:17:18;100990.72;;;8.37;100.00
46955;BME280;32708;51.212;6.788;2023-12-20T11:22:31;100978.84;;;8.47;100.00
46955;BME280;32708;51.212;6.788;2023-12-20T11:25:04;100977.03;;;8.23;100.00
46955;BME280;32708;51.212;6.788;2023-12-20T11:27:31;100976.16;;;8.61;100.00
46955;BME280;32708;51.212;6.788;2023-12-20T11:29:59;100967.34;;;8.36;100.00
46955;BME280;32708;51.212;6.788;2023-12-20T11:35:21;100966.41;;;8.73;100.00
46955;BME280;32708;51.212;6.788;2023-12-20T11:37:46;100971.22;;;8.63;100.00
46955;BME280;32708;51.212;6.788;2023-12-20T11:40:18;100961.25;;;8.72;100.00
46955;BME280;32708;51.212;6.788;2023-12-20T11:42:50;100968.16;;;8.37;100.00
46955;BME280;32708;51.212;6.788;2023-12-20T11:45:23;100972.09;;;8.44;100.00
46955;BME280;32708;51.212;6.788;2023-12-20T11:47:51;100976.63;;;8.49;100.00
46955;BME280;32708;51.212;6.788;2023-12-20T11:50:22;100975.94;;;8.43;100.00
46955;BME280;32708;51.212;6.788;2023-12-20T11:52:52;100978.53;;;8.48;100.00
46955;BME280;32708;51.212;6.788;2023-12-20T11:55:19;100972.72;;;8.55;100.00
46955;BME280;32708;51.212;6.788;2023-12-20T11:57:45;100978.25;;;8.64;100.00
46955;BME280;32708;51.212;6.788;2023-12-20T12:00:14;100971.22;;;8.63;100.00
46955;BME280;32708;51.212;6.788;2023-12-20T12:02:40;100972.00;;;8.63;100.00
46955;BME280;32708;51.212;6.788;2023-12-20T12:05:07;100949.06;;;8.83;100.00
46955;BME280;32708;51.212;6.788;2023-12-20T12:07:34;100945.00;;;8.53;100.00
46955;BME280;32708;51.212;6.788;2023-12-20T12:10:01;100941.78;;;8.65;100.00
46955;BME280;32708;51.212;6.788;2023-12-20T12:12:30;100939.19;;;8.73;100.00
46955;BME280;32708;51.212;6.788;2023-12-20T12:14:57;100938.78;;;8.80;100.00
46955;BME280;32708;51.212;6.788;2023-12-20T12:17:23;100932.72;;;8.69;100.00
46955;BME280;32708;51.212;6.788;2023-12-20T12:19:50;100930.09;;;9.05;100.00
46955;BME280;32708;51.212;6.788;2023-12-20T12:22:16;100920.41;;;8.86;100.00
46955;BME280;32708;51.212;6.788;2023-12-20T12:24:43;100933.34;;;8.80;100.00
46955;BME280;32708;51.212;6.788;2023-12-20T12:27:15;100942.34;;;8.48;100.00
46955;BME280;32708;51.212;6.788;2023-12-20T12:30:04;100929.06;;;8.60;100.00
46955;BME280;32708;51.212;6.788;2023-12-20T12:32:32;100937.25;;;8.60;100.00
46955;BME280;32708;51.212;6.788;2023-12-20T12:34:58;100941.09;;;8.73;100.00
46955;BME280;32708;51.212;6.788;2023-12-20T12:37:25;100949.78;;;8.42;100.00
46955;BME280;32708;51.212;6.788;2023-12-20T12:39:55;100944.50;;;8.78;100.00
46955;BME280;32708;51.212;6.788;2023-12-20T12:42:22;100930.19;;;8.59;100.00
46955;BME280;32708;51.212;6.788;2023-12-20T12:44:54;100941.56;;;8.28;100.00
46955;BME280;32708;51.212;6.788;2023-12-20T12:47:22;100948.00;;;8.38;100.00
46955;BME280;32708;51.212;6.788;2023-12-20T12:49:51;100934.75;;;8.31;100.00
46955;BME280;32708;51.212;6.788;2023-12-20T12:52:20;100928.34;;;8.41;100.00
46955;BME280;32708;51.212;6.788;2023-12-20T12:54:46;100917.31;;;8.65;100.00
46955;BME280;32708;51.212;6.788;2023-12-20T12:57:14;100928.97;;;8.51;100.00
46955;BME280;32708;51.212;6.788;2023-12-20T12:59:42;100940.13;;;8.36;100.00